Time;durP1;ratioP1;P1;durP2;ratioP2;P2;SDS_P1;SDS_P2;PMS_P1;PMS_P2;Temp;Humidity;BMP_temperature;BMP_pressure;BME280_temperature;BME280_humidity;BME280_pressure;Samples;Min_cycle;Max_cycle;Signal;HPM_P1;HPM_P2
2024/01/31 00:00:34;;;;;;;54.42;36.58;;;3.30;97.00;;;;;;5041580;28;20083;-48
2024/01/31 00:03:00;;;;;;;58.53;37.92;;;3.40;96.60;;;;;;5041104;28;20045;-46
2024/01/31 00:05:26;;;;;;;65.43;40.08;;;3.40;96.30;;;;;;5041720;28;20104;-45
2024/01/31 00:07:52;;;;;;;64.63;41.20;;;3.50;96.00;;;;;;5038658;28;20116;-48
2024/01/31 00:10:18;;;;;;;61.92;41.35;;;3.50;95.90;;;;;;5040887;28;20064;-46
2024/01/31 00:12:44;;;;;;;60.92;40.42;;;3.50;95.70;;;;;;5041248;28;20038;-49
2024/01/31 00:15:09;;;;;;;63.78;40.90;;;3.60;95.40;;;;;;5042042;28;20108;-48
2024/01/31 00:17:35;;;;;;;57.78;40.03;;;3.60;95.30;;;;;;5040643;28;20041;-47
2024/01/31 00:20:01;;;;;;;63.00;41.88;;;3.70;95.30;;;;;;5038192;28;20041;-48
2024/01/31 00:22:26;;;;;;;80.72;48.47;;;3.60;95.30;;;;;;5032614;28;20139;-47
2024/01/31 00:24:52;;;;;;;68.80;43.88;;;3.70;95.50;;;;;;5032463;28;20025;-47
2024/01/31 00:27:18;;;;;;;71.55;46.25;;;3.70;95.50;;;;;;5030436;28;20042;-45
2024/01/31 00:29:45;;;;;;;79.38;46.70;;;3.70;95.20;;;;;;5032643;28;20026;-48
2024/01/31 00:32:11;;;;;;;101.57;56.20;;;3.70;95.10;;;;;;5030381;28;20061;-46
2024/01/31 00:34:36;;;;;;;561.35;290.00;;;3.60;95.30;;;;;;5032266;28;20165;-46
2024/01/31 00:37:02;;;;;;;151.05;83.70;;;3.40;96.20;;;;;;5032530;28;20083;-46
2024/01/31 00:39:31;;;;;;;96.40;54.70;;;3.20;96.80;;;;;;5031856;28;20031;-47
2024/01/31 00:41:58;;;;;;;117.75;60.55;;;3.00;97.90;;;;;;5032518;28;20025;-47
2024/01/31 00:44:23;;;;;;;122.28;60.88;;;3.10;97.50;;;;;;5032459;28;20400;-47
2024/01/31 00:46:49;;;;;;;123.45;63.47;;;3.30;97.30;;;;;;5032049;28;20037;-48
2024/01/31 00:49:15;;;;;;;241.13;113.97;;;3.40;96.90;;;;;;5032353;28;20057;-49
2024/01/31 00:51:44;;;;;;;228.63;112.07;;;3.50;96.90;;;;;;5031699;28;20124;-46
2024/01/31 00:54:12;;;;;;;194.50;97.22;;;3.50;96.70;;;;;;5032130;28;20416;-46
2024/01/31 00:56:38;;;;;;;199.02;100.38;;;3.60;96.80;;;;;;5031986;28;20037;-46
2024/01/31 00:59:04;;;;;;;189.38;95.43;;;3.60;96.50;;;;;;5032203;28;20038;-47
2024/01/31 01:01:30;;;;;;;173.93;91.38;;;3.60;96.30;;;;;;5032244;28;20033;-48
2024/01/31 01:03:55;;;;;;;169.32;88.43;;;3.70;96.10;;;;;;5013390;28;20133;-49
2024/01/31 01:06:21;;;;;;;103.78;53.05;;;3.70;95.90;;;;;;5046616;28;20041;-48
2024/01/31 01:08:47;;;;;;;124.10;68.53;;;3.60;95.80;;;;;;5031941;28;20108;-46
2024/01/31 01:11:13;;;;;;;68.70;42.90;;;3.60;95.80;;;;;;5031994;28;20029;-49
2024/01/31 01:13:38;;;;;;;58.88;39.00;;;3.30;96.30;;;;;;5029810;28;20046;-46
2024/01/31 01:16:04;;;;;;;53.83;36.38;;;3.00;97.30;;;;;;5029787;28;20389;-48
2024/01/31 01:18:30;;;;;;;54.17;36.13;;;3.00;97.30;;;;;;5032168;28;20029;-47
2024/01/31 01:20:56;;;;;;;62.78;38.00;;;2.60;98.70;;;;;;5031855;28;20025;-48
2024/01/31 01:23:21;;;;;;;65.13;41.53;;;2.80;98.10;;;;;;5031898;28;20064;-49
2024/01/31 01:25:48;;;;;;;57.50;35.75;;;3.10;97.60;;;;;;5031690;28;20049;-47
2024/01/31 01:28:13;;;;;;;51.50;34.05;;;3.20;97.00;;;;;;5031651;28;20028;-49
2024/01/31 01:30:39;;;;;;;53.45;32.78;;;3.30;96.60;;;;;;5031843;28;20100;-48
2024/01/31 01:33:05;;;;;;;72.43;43.30;;;3.20;96.80;;;;;;5031611;28;20041;-50
2024/01/31 01:35:31;;;;;;;66.47;42.55;;;3.20;97.40;;;;;;5031967;28;20100;-48
2024/01/31 01:37:56;;;;;;;68.85;43.28;;;3.30;97.20;;;;;;5029523;28;20033;-47
2024/01/31 01:40:22;;;;;;;66.65;43.88;;;3.40;97.40;;;;;;5031540;28;20039;-46
2024/01/31 01:42:48;;;;;;;78.38;51.55;;;3.30;97.30;;;;;;5031523;28;20033;-48
2024/01/31 01:45:13;;;;;;;69.30;44.67;;;3.20;97.30;;;;;;5029629;28;20046;-49
2024/01/31 01:47:42;;;;;;;60.45;40.75;;;3.30;97.30;;;;;;5031626;28;20038;-48
2024/01/31 01:50:09;;;;;;;60.92;39.83;;;;;;;;;;5046220;28;20040;-47
2024/01/31 01:52:35;;;;;;;79.63;46.60;;;;;;;;;;5035300;28;20103;-49
2024/01/31 01:55:05;;;;;;;93.53;58.13;;;;;;;;;;5035326;28;20464;-49
2024/01/31 01:57:31;;;;;;;233.05;112.88;;;;;;;;;;5035346;28;20429;-48
2024/01/31 01:59:58;;;;;;;203.43;107.32;;;;;;;;;;5035118;28;20109;-49
2024/01/31 02:02:24;;;;;;;209.27;110.63;;;;;;;;;;5034875;28;20029;-48
2024/01/31 02:04:50;;;;;;;186.27;97.63;;;;;;;;;;5035084;28;20116;-47
2024/01/31 02:07:24;;;;;;;191.30;101.47;;;;;;;;;;5035102;28;20033;-48
2024/01/31 02:09:55;;;;;;;136.65;78.13;;;;;;;;;;5016543;28;20112;-47
2024/01/31 02:12:21;;;;;;;108.72;66.07;;;;;;;;;;5026719;28;20076;-49
2024/01/31 02:14:47;;;;;;;96.65;54.35;;;3.50;99.90;;;;;;5054888;28;20033;-49
2024/01/31 02:17:14;;;;;;;66.75;43.25;;;;;;;;;;5054767;28;20458;-49
2024/01/31 02:19:39;;;;;;;51.00;35.92;;;3.50;99.30;;;;;;5054757;28;20104;-47
2024/01/31 02:22:07;;;;;;;54.20;34.45;;;3.30;96.60;;;;;;5054810;28;20025;-47
2024/01/31 02:24:32;;;;;;;51.47;35.05;;;3.30;96.50;;;;;;5054665;28;20041;-47
2024/01/31 02:26:58;;;;;;;55.75;36.38;;;3.40;97.20;;;;;;5054684;28;20029;-48
2024/01/31 02:29:24;;;;;;;58.80;37.55;;;3.20;98.00;;;;;;5054080;28;20032;-49
2024/01/31 02:31:50;;;;;;;51.67;35.15;;;;;;;;;;5052444;28;20039;-47
2024/01/31 02:34:16;;;;;;;62.17;34.95;;;;;;;;;;5054459;28;20024;-47
2024/01/31 02:36:42;;;;;;;61.22;39.15;;;;;;;;;;5054484;28;20033;-48
2024/01/31 02:39:08;;;;;;;57.67;39.28;;;;;;;;;;5054473;28;20033;-49
2024/01/31 02:41:34;;;;;;;58.15;37.40;;;;;;;;;;5054639;28;20028;-49
2024/01/31 02:44:00;;;;;;;53.63;37.88;;;;;;;;;;5054491;28;20033;-46
2024/01/31 02:46:26;;;;;;;54.05;38.00;;;;;;;;;;5054408;28;20036;-48
2024/01/31 02:48:52;;;;;;;56.60;37.75;;;;;;;;;;5052218;28;20037;-47
2024/01/31 02:51:18;;;;;;;59.17;37.92;;;;;;;;;;5054000;28;21075;-47
2024/01/31 02:53:45;;;;;;;62.33;39.35;;;;;;;;;;5054173;28;20033;-48
2024/01/31 02:56:11;;;;;;;61.92;40.88;;;;;;;;;;5052007;28;20044;-49
2024/01/31 02:58:37;;;;;;;63.03;41.33;;;;;;;;;;5054017;28;20025;-46
2024/01/31 03:01:07;;;;;;;60.85;40.42;;;;;;;;;;5052541;28;20037;-46
2024/01/31 03:03:33;;;;;;;61.97;42.50;;;;;;;;;;5031869;28;20065;-49
2024/01/31 03:05:59;;;;;;;66.82;42.55;;;;;;;;;;5034074;28;20030;-49
2024/01/31 03:08:25;;;;;;;65.22;44.17;;;;;;;;;;5033882;28;20056;-49
2024/01/31 03:10:51;;;;;;;72.20;44.72;;;;;;;;;;5011468;28;20037;-48
2024/01/31 03:13:17;;;;;;;68.38;43.00;;;;;;;;;;5011768;28;20071;-46
2024/01/31 03:15:44;;;;;;;66.65;42.33;;;;;;;;;;5011698;28;20096;-46
2024/01/31 03:18:10;;;;;;;62.70;40.90;;;;;;;;;;5011763;28;20041;-47
2024/01/31 03:20:36;;;;;;;62.03;39.92;;;;;;;;;;5011421;28;20071;-49
2024/01/31 03:23:02;;;;;;;63.88;42.30;;;;;;;;;;5028657;28;20034;-49
2024/01/31 03:25:28;;;;;;;61.05;40.97;;;2.70;99.90;;;;;;5011781;28;20108;-48
2024/01/31 03:27:54;;;;;;;50.75;35.83;;;;;;;;;;5011568;28;20572;-49
2024/01/31 03:30:20;;;;;;;56.42;37.80;;;2.40;99.90;;;;;;5011571;28;20050;-47
2024/01/31 03:32:46;;;;;;;57.55;38.67;;;2.20;97.90;;;;;;5011330;28;20053;-47
2024/01/31 03:35:12;;;;;;;54.15;38.00;;;2.20;97.90;;;;;;5011619;28;20040;-49
2024/01/31 03:37:37;;;;;;;58.47;38.08;;;2.20;97.40;;;;;;5011461;28;20117;-49
2024/01/31 03:40:08;;;;;;;53.10;36.80;;;2.20;97.70;;;;;;5011163;28;20038;-47
2024/01/31 03:42:34;;;;;;;54.70;37.55;;;2.40;97.40;;;;;;5028710;28;20052;-47
2024/01/31 03:45:00;;;;;;;55.85;37.70;;;2.60;97.00;;;;;;5033291;28;20381;-47
2024/01/31 03:47:26;;;;;;;64.88;42.80;;;2.60;96.60;;;;;;5033189;28;20037;-46
2024/01/31 03:49:52;;;;;;;60.10;39.80;;;2.70;96.60;;;;;;5031127;28;20484;-48
2024/01/31 03:52:18;;;;;;;64.35;40.60;;;2.70;96.60;;;;;;5032916;28;20056;-48
2024/01/31 03:54:43;;;;;;;59.55;38.25;;;2.60;96.60;;;;;;5033089;28;20030;-47
2024/01/31 03:57:09;;;;;;;67.25;38.15;;;2.60;97.00;;;;;;5031033;28;20030;-48
2024/01/31 03:59:36;;;;;;;68.70;42.88;;;2.60;97.00;;;;;;5032730;28;20814;-47
2024/01/31 04:02:02;;;;;;;52.88;36.55;;;2.70;96.70;;;;;;5033039;28;20033;-49
2024/01/31 04:04:28;;;;;;;65.13;37.05;;;2.70;96.50;;;;;;5047187;28;20108;-49
2024/01/31 04:06:54;;;;;;;48.70;32.15;;;2.80;96.40;;;;;;5032619;28;20108;-50
2024/01/31 04:09:19;;;;;;;45.53;30.30;;;2.70;96.40;;;;;;5047318;28;20037;-46
2024/01/31 04:11:45;;;;;;;60.75;32.85;;;2.70;96.60;;;;;;5032570;28;20030;-48
2024/01/31 04:14:11;;;;;;;53.92;35.03;;;2.80;96.60;;;;;;5032230;28;20026;-48
2024/01/31 04:16:37;;;;;;;53.25;31.65;;;2.60;96.50;;;;;;5013894;28;20037;-47
2024/01/31 04:19:02;;;;;;;50.78;34.42;;;2.60;97.00;;;;;;5032651;28;20036;-46
2024/01/31 04:21:28;;;;;;;55.88;36.00;;;2.40;97.10;;;;;;5032541;28;20044;-47
2024/01/31 04:23:54;;;;;;;55.03;35.08;;;2.20;98.10;;;;;;5032489;28;20029;-46
2024/01/31 04:26:20;;;;;;;53.83;35.90;;;2.20;98.00;;;;;;5063797;28;20040;-46
2024/01/31 04:28:45;;;;;;;66.70;42.00;;;2.10;98.10;;;;;;5030359;28;20042;-46
2024/01/31 04:31:15;;;;;;;57.97;37.28;;;2.20;98.00;;;;;;5032785;28;20063;-48
2024/01/31 04:33:42;;;;;;;60.05;39.03;;;2.30;97.40;;;;;;5013808;28;20493;-48
2024/01/31 04:36:07;;;;;;;49.78;35.83;;;2.30;96.90;;;;;;5032326;28;20037;-48
2024/01/31 04:38:33;;;;;;;59.28;37.15;;;2.20;97.20;;;;;;5032298;28;20028;-46
2024/01/31 04:41:00;;;;;;;58.33;38.05;;;2.30;97.10;;;;;;5046826;28;20138;-46
2024/01/31 04:43:25;;;;;;;58.05;36.88;;;2.10;97.20;;;;;;5032300;28;20030;-47
2024/01/31 04:45:51;;;;;;;83.43;54.38;;;2.00;97.80;;;;;;5030131;28;20099;-47
2024/01/31 04:48:17;;;;;;;65.65;42.78;;;1.90;98.10;;;;;;5032264;28;20032;-46
2024/01/31 04:50:44;;;;;;;48.13;32.50;;;1.90;98.60;;;;;;5032090;28;20029;-46
2024/01/31 04:53:10;;;;;;;47.72;32.97;;;1.70;98.70;;;;;;5031870;28;20096;-46
2024/01/31 04:55:36;;;;;;;44.15;30.10;;;;;;;;;;5031980;28;20448;-45
2024/01/31 04:58:02;;;;;;;41.83;27.80;;;;;;;;;;5030082;28;20042;-49
2024/01/31 05:00:28;;;;;;;52.03;34.28;;;;;;;;;;5046499;28;20045;-46
2024/01/31 05:02:54;;;;;;;40.63;28.13;;;;;;;;;;5032023;28;20546;-47
2024/01/31 05:05:20;;;;;;;42.90;30.10;;;;;;;;;;5032049;28;20025;-48
2024/01/31 05:07:46;;;;;;;42.28;28.23;;;;;;;;;;5031885;28;20060;-49
2024/01/31 05:10:12;;;;;;;44.22;28.45;;;;;;;;;;5032034;28;20048;-49
2024/01/31 05:12:38;;;;;;;47.78;27.67;;;;;;;;;;5031751;28;20032;-48
2024/01/31 05:15:05;;;;;;;45.38;27.67;;;;;;;;;;5031848;28;20025;-47
2024/01/31 05:17:31;;;;;;;56.97;28.80;;;;;;;;;;5046394;28;20121;-47
2024/01/31 05:19:58;;;;;;;44.72;29.88;;;;;;;;;;5031797;28;20037;-50
2024/01/31 05:22:24;;;;;;;50.33;32.72;;;;;;;;;;5031722;28;20140;-47
2024/01/31 05:24:50;;;;;;;50.17;32.38;;;;;;;;;;5014177;28;20087;-46
2024/01/31 05:27:16;;;;;;;52.55;35.50;;;;;;;;;;5050232;28;20076;-48
2024/01/31 05:29:42;;;;;;;56.85;36.25;;;;;;;;;;5035786;28;20438;-48
2024/01/31 05:32:08;;;;;;;58.17;35.25;;;;;;;;;;5035684;28;20477;-49
2024/01/31 05:34:34;;;;;;;60.72;36.17;;;;;;;;;;5035651;28;20029;-47
2024/01/31 05:37:00;;;;;;;53.50;33.67;;;;;;;;;;5050107;28;20046;-46
2024/01/31 05:39:26;;;;;;;58.45;37.03;;;;;;;;;;5035667;28;20033;-49
2024/01/31 05:41:52;;;;;;;61.90;37.35;;;;;;;;;;5052208;28;20043;-47
2024/01/31 05:44:20;;;;;;;63.70;36.92;;;;;;;;;;5055630;28;20033;-48
2024/01/31 05:46:46;;;;;;;62.35;36.05;;;;;;;;;;5053357;28;20056;-49
2024/01/31 05:49:13;;;;;;;79.90;38.05;;;;;;;;;;5055540;28;20059;-49
2024/01/31 05:51:39;;;;;;;71.68;38.13;;;;;;;;;;5053035;28;20052;-49
2024/01/31 05:54:05;;;;;;;62.58;38.20;;;;;;;;;;5055111;28;20043;-46
2024/01/31 05:56:31;;;;;;;59.78;37.13;;;;;;;;;;5053068;28;20056;-46
2024/01/31 05:58:57;;;;;;;64.13;38.10;;;;;;;;;;5053040;28;20123;-46
2024/01/31 06:01:23;;;;;;;62.00;36.75;;;;;;;;;;5049007;28;20048;-49
2024/01/31 06:03:50;;;;;;;57.13;35.33;;;;;;;;;;5054956;28;20028;-49
2024/01/31 06:06:16;;;;;;;54.38;36.15;;;;;;;;;;5016562;28;20034;-47
2024/01/31 06:08:42;;;;;;;64.03;36.83;;;;;;;;;;5035271;28;20092;-47
2024/01/31 06:11:08;;;;;;;84.97;46.30;;;;;;;;;;5039528;28;20024;-49
2024/01/31 06:13:35;;;;;;;106.68;53.17;;;;;;;;;;5052700;28;20131;-46
2024/01/31 06:16:02;;;;;;;120.20;55.15;;;;;;;;;;5039448;28;20041;-47
2024/01/31 06:18:32;;;;;;;83.95;44.78;;;2.50;96.60;;;;;;5034987;28;20056;-48
2024/01/31 06:20:58;;;;;;;68.57;40.25;;;2.50;97.10;;;;;;5034756;28;20037;-49
2024/01/31 06:23:26;;;;;;;78.22;36.70;;;2.50;97.30;;;;;;5034497;28;20432;-49
2024/01/31 06:25:52;;;;;;;60.28;35.58;;;2.60;97.60;;;;;;5046802;28;20044;-46
2024/01/31 06:28:17;;;;;;;69.70;41.50;;;2.80;97.70;;;;;;5054584;28;20044;-46
2024/01/31 06:30:44;;;;;;;60.53;35.13;;;2.80;97.60;;;;;;5054136;28;20044;-49
2024/01/31 06:33:11;;;;;;;55.78;33.42;;;2.80;97.30;;;;;;5054400;28;20076;-47
2024/01/31 06:35:41;;;;;;;62.42;33.67;;;2.80;97.70;;;;;;5052161;28;20043;-48
2024/01/31 06:38:07;;;;;;;53.08;32.13;;;3.80;97.30;;;;;;5053831;28;20061;-50
2024/01/31 06:40:33;;;;;;;47.85;30.88;;;5.50;96.80;;;;;;5054446;28;20061;-46
2024/01/31 06:42:59;;;;;;;48.85;32.53;;;;;;;;;;5035730;28;20079;-49
2024/01/31 06:45:25;;;;;;;72.32;48.80;;;9.10;99.90;;;;;;5054424;28;20025;-49
2024/01/31 06:47:54;;;;;;;46.75;35.97;;;;;;;;;;5052278;28;20507;-49
2024/01/31 06:50:21;;;;;;;45.90;34.90;;;;;;;;;;5053928;28;20087;-47
2024/01/31 06:52:47;;;;;;;44.50;34.47;;;12.10;98.90;;;;;;5043247;28;20052;-48
2024/01/31 06:55:13;;;;;;;48.38;34.30;;;12.70;84.30;;;;;;5048386;28;20572;-50
2024/01/31 06:57:40;;;;;;;42.05;33.15;;;13.40;83.50;;;;;;5035268;28;20033;-48
2024/01/31 07:00:07;;;;;;;34.05;26.55;;;13.80;83.50;;;;;;5039500;28;20028;-47
2024/01/31 07:02:33;;;;;;;34.38;28.08;;;14.10;81.00;;;;;;5026283;28;20041;-49
2024/01/31 07:04:59;;;;;;;31.55;24.70;;;;;;;;;;5042849;28;20089;-47
2024/01/31 07:07:25;;;;;;;31.17;23.85;;;14.90;78.00;;;;;;5043624;28;20103;-48
2024/01/31 07:09:50;;;;;;;29.73;25.17;;;15.40;77.90;;;;;;5044278;28;20425;-47
2024/01/31 07:12:16;;;;;;;30.80;25.50;;;16.30;76.60;;;;;;5044956;28;20030;-47
2024/01/31 07:14:42;;;;;;;31.20;26.27;;;;;;;;;;5034008;28;20120;-48
2024/01/31 07:17:08;;;;;;;33.13;28.30;;;17.60;97.90;;;;;;5033757;28;20477;-48
2024/01/31 07:19:34;;;;;;;39.97;32.90;;;18.00;74.60;;;;;;5033815;28;20029;-47
2024/01/31 07:21:59;;;;;;;34.67;27.85;;;18.80;73.10;;;;;;5046058;28;20039;-48
2024/01/31 07:24:27;;;;;;;34.83;29.20;;;19.20;71.70;;;;;;5051561;28;20036;-48
2024/01/31 07:26:54;;;;;;;35.58;28.52;;;;;;;;;;5044505;28;20612;-50
2024/01/31 07:29:19;;;;;;;35.25;29.23;;;19.90;97.50;;;;;;5041369;28;20033;-50
2024/01/31 07:31:45;;;;;;;37.15;30.67;;;20.10;70.70;;;;;;5049714;28;20041;-49
2024/01/31 07:34:11;;;;;;;35.40;31.40;;;;;;;;;;5048638;28;20075;-48
2024/01/31 07:36:37;;;;;;;33.92;28.92;;;21.20;68.60;;;;;;5031476;28;20037;-50
2024/01/31 07:39:04;;;;;;;34.83;29.02;;;21.40;78.80;;;;;;5033376;28;20489;-49
2024/01/31 07:41:30;;;;;;;35.10;28.45;;;21.30;67.80;;;;;;5033342;28;20116;-51
2024/01/31 07:43:56;;;;;;;35.80;30.92;;;20.80;68.00;;;;;;5033518;28;20105;-51
2024/01/31 07:46:23;;;;;;;40.33;33.00;;;21.40;67.40;;;;;;5031227;28;20045;-51
2024/01/31 07:48:48;;;;;;;47.60;39.25;;;22.20;67.70;;;;;;5031168;28;20049;-49
2024/01/31 07:51:15;;;;;;;46.30;38.10;;;22.10;86.90;;;;;;5032952;28;20031;-48
2024/01/31 07:53:41;;;;;;;46.45;41.10;;;22.20;66.60;;;;;;5032599;28;20048;-49
2024/01/31 07:56:07;;;;;;;47.75;40.20;;;;;;;;;;5033289;28;20059;-49
2024/01/31 07:58:33;;;;;;;62.85;52.15;;;22.50;65.60;;;;;;5033149;28;20045;-46
2024/01/31 08:00:59;;;;;;;79.03;54.78;;;20.50;66.50;;;;;;5033206;28;20384;-47
2024/01/31 08:03:24;;;;;;;59.80;47.05;;;21.70;67.20;;;;;;5031806;28;20481;-48
2024/01/31 08:05:50;;;;;;;58.78;51.78;;;20.50;66.70;;;;;;5033158;28;20794;-48
2024/01/31 08:08:16;;;;;;;60.65;51.05;;;21.30;67.10;;;;;;5033017;28;20388;-47
2024/01/31 08:10:42;;;;;;;57.83;49.45;;;22.00;66.80;;;;;;5034515;28;20069;-47
2024/01/31 08:13:08;;;;;;;69.45;52.65;;;21.40;66.60;;;;;;5032928;28;20444;-48
2024/01/31 08:15:34;;;;;;;56.92;47.67;;;;;;;;;;5032348;28;20041;-46
2024/01/31 08:18:03;;;;;;;59.03;52.47;;;20.90;67.50;;;;;;5032782;28;20485;-47
2024/01/31 08:20:30;;;;;;;62.13;52.03;;;21.10;67.80;;;;;;5032603;28;20037;-45
2024/01/31 08:22:56;;;;;;;71.68;57.33;;;;;;;;;;5030392;28;20041;-48
2024/01/31 08:25:23;;;;;;;63.53;54.65;;;21.20;67.00;;;;;;5034354;28;20060;-48
2024/01/31 08:27:49;;;;;;;71.63;59.60;;;21.70;67.20;;;;;;5052179;28;20036;-47
2024/01/31 08:30:17;;;;;;;82.50;68.57;;;21.70;66.60;;;;;;5052543;28;20068;-46
2024/01/31 08:32:43;;;;;;;63.70;56.90;;;;;;;;;;5052300;28;20396;-48
2024/01/31 08:35:10;;;;;;;69.28;58.10;;;21.90;66.10;;;;;;5052206;28;20028;-46
2024/01/31 08:37:36;;;;;;;77.00;65.38;;;21.50;67.20;;;;;;5037247;28;20049;-46
2024/01/31 08:40:03;;;;;;;74.15;66.13;;;22.20;66.80;;;;;;5038724;28;20059;-47
2024/01/31 08:42:28;;;;;;;64.32;55.60;;;22.20;67.10;;;;;;5033655;28;20040;-48
2024/01/31 08:44:55;;;;;;;73.53;60.80;;;21.40;66.30;;;;;;5052147;28;20430;-46
2024/01/31 08:47:21;;;;;;;76.88;61.38;;;20.40;67.00;;;;;;5052298;28;20081;-47
2024/01/31 08:49:48;;;;;;;73.75;56.25;;;20.40;67.60;;;;;;5046323;28;20493;-47
2024/01/31 08:52:14;;;;;;;55.38;46.95;;;21.40;67.10;;;;;;5040182;28;20053;-46
2024/01/31 08:54:41;;;;;;;64.60;56.25;;;;;;;;;;5037670;28;20400;-48
2024/01/31 08:57:06;;;;;;;67.57;56.42;;;22.20;66.00;;;;;;5039858;28;20469;-48
2024/01/31 08:59:33;;;;;;;50.15;43.15;;;20.10;66.90;;;;;;5040737;28;20068;-49
2024/01/31 09:01:59;;;;;;;45.13;40.08;;;;;;;;;;5041237;28;20112;-48
2024/01/31 09:04:25;;;;;;;49.65;40.58;;;;;;;;;;5040901;28;20033;-49
2024/01/31 09:06:51;;;;;;;40.75;36.33;;;;;;;;;;5045863;28;20381;-48
2024/01/31 09:09:17;;;;;;;43.40;37.88;;;23.40;63.30;;;;;;5051990;28;20079;-46
2024/01/31 09:11:42;;;;;;;43.53;38.88;;;23.30;63.80;;;;;;5044490;28;20496;-47
2024/01/31 09:14:08;;;;;;;48.00;39.42;;;22.20;64.80;;;;;;5051967;28;20487;-45
2024/01/31 09:16:34;;;;;;;43.47;37.22;;;22.80;64.70;;;;;;5032998;28;20479;-48
2024/01/31 09:19:01;;;;;;;48.00;37.28;;;22.70;65.10;;;;;;5033358;28;20041;-48
2024/01/31 09:21:27;;;;;;;46.13;38.45;;;21.40;65.90;;;;;;5033805;28;20033;-47
2024/01/31 09:23:53;;;;;;;51.42;45.80;;;21.90;66.50;;;;;;5031812;28;20041;-49
2024/01/31 09:26:19;;;;;;;41.00;36.35;;;;;;;;;;5031953;28;20037;-48
2024/01/31 09:28:45;;;;;;;43.00;38.35;;;23.30;64.50;;;;;;5029704;28;20049;-46
2024/01/31 09:31:20;;;;;;;41.67;37.28;;;22.00;64.60;;;;;;5031973;28;20040;-47
2024/01/31 09:33:45;;;;;;;39.63;35.35;;;22.90;65.10;;;;;;5031919;28;20041;-49
2024/01/31 09:36:11;;;;;;;41.22;36.85;;;22.90;64.80;;;;;;5032893;28;20052;-46
2024/01/31 09:38:37;;;;;;;46.08;39.30;;;22.90;64.50;;;;;;5042357;28;20043;-47
2024/01/31 09:41:03;;;;;;;43.58;36.78;;;22.60;66.50;;;;;;5038479;28;20116;-47
2024/01/31 09:43:29;;;;;;;43.80;37.60;;;22.50;65.30;;;;;;5032220;28;20072;-48
2024/01/31 09:45:56;;;;;;;40.92;36.63;;;22.90;75.50;;;;;;5038840;28;20041;-49
2024/01/31 09:48:23;;;;;;;40.88;36.47;;;;;;;;;;5034319;28;20037;-46
2024/01/31 09:50:49;;;;;;;66.43;52.17;;;23.20;64.50;;;;;;5031308;28;20468;-49
2024/01/31 09:53:15;;;;;;;42.83;38.33;;;21.70;65.30;;;;;;5031367;28;20133;-48
2024/01/31 09:55:43;;;;;;;39.20;35.10;;;22.10;65.90;;;;;;5031578;28;20037;-49
2024/01/31 09:58:09;;;;;;;43.05;36.83;;;22.50;65.70;;;;;;5030999;28;20025;-46
2024/01/31 10:00:37;;;;;;;38.70;34.30;;;22.40;65.80;;;;;;5031291;28;20026;-48
2024/01/31 10:03:04;;;;;;;39.00;34.85;;;22.90;65.40;;;;;;5031633;28;20103;-47
2024/01/31 10:05:30;;;;;;;41.28;33.38;;;22.80;65.20;;;;;;5035186;28;20476;-49
2024/01/31 10:08:03;;;;;;;43.05;38.35;;;22.90;65.10;;;;;;5051329;28;20029;-48
2024/01/31 10:10:29;;;;;;;42.03;35.38;;;23.20;68.30;;;;;;5051090;28;20033;-47
2024/01/31 10:12:55;;;;;;;43.95;35.45;;;23.10;65.50;;;;;;5051642;28;20049;-46
2024/01/31 10:15:21;;;;;;;37.65;33.63;;;22.70;65.30;;;;;;5047211;28;20033;-49
2024/01/31 10:17:47;;;;;;;37.22;33.15;;;22.70;65.40;;;;;;5042809;28;20036;-48
2024/01/31 10:20:16;;;;;;;43.65;35.47;;;21.80;65.60;;;;;;5041659;28;20124;-48
2024/01/31 10:22:45;;;;;;;47.63;34.47;;;21.50;66.50;;;;;;5042413;28;20029;-49
2024/01/31 10:25:15;;;;;;;38.47;31.42;;;21.60;67.90;;;;;;5045167;28;20068;-49
2024/01/31 10:27:41;;;;;;;37.58;31.55;;;21.40;66.40;;;;;;5048682;28;20120;-45
2024/01/31 10:30:10;;;;;;;33.53;30.02;;;21.50;67.00;;;;;;5046375;28;20713;-48
2024/01/31 10:32:38;;;;;;;31.73;28.08;;;21.80;66.40;;;;;;5035529;28;20564;-50
2024/01/31 10:35:05;;;;;;;34.70;29.27;;;22.50;66.60;;;;;;5034593;28;20033;-49
2024/01/31 10:37:31;;;;;;;34.58;30.85;;;22.10;66.90;;;;;;4999727;28;20041;-48
2024/01/31 10:39:59;;;;;;;34.35;28.83;;;21.50;66.90;;;;;;5035889;28;20116;-48
2024/01/31 10:42:25;;;;;;;34.15;30.50;;;20.30;70.40;;;;;;5040117;28;20036;-50
2024/01/31 10:44:51;;;;;;;40.85;31.05;;;20.70;81.70;;;;;;5049269;28;20048;-51
2024/01/31 10:47:17;;;;;;;70.00;50.45;;;19.20;95.60;;;;;;5039117;28;20052;-50
2024/01/31 10:49:43;;;;;;;35.15;30.63;;;;;;;;;;5043044;28;20485;-50
2024/01/31 10:52:10;;;;;;;33.35;27.80;;;;;;;;;;5042606;28;20099;-48
2024/01/31 10:54:39;;;;;;;36.95;29.17;;;;;;;;;;5043348;28;20053;-50
2024/01/31 10:57:05;;;;;;;40.13;35.92;;;;;;;;;;5042808;28;20022;-50
2024/01/31 10:59:37;;;;;;;36.08;29.48;;;;;;;;;;5042737;28;20045;-50
2024/01/31 11:02:23;;;;;;;;;;;;;;;;;;5058855;28;20585;-49
2024/01/31 11:04:52;;;;;;;29.73;25.65;;;;;;;;;;5056783;28;19909;-47
2024/01/31 11:07:21;;;;;;;29.80;23.30;;;;;;;;;;5061024;28;20071;-47
2024/01/31 11:09:49;;;;;;;40.10;28.67;;;;;;;;;;5054188;28;20086;-45
2024/01/31 11:12:18;;;;;;;31.02;27.42;;;19.60;97.70;;;;;;5035761;28;20565;-50
2024/01/31 11:14:45;;;;;;;31.15;26.20;;;17.80;91.70;;;;;;5067162;28;20029;-48
2024/01/31 11:17:12;;;;;;;35.40;29.13;;;;;;;;;;5062517;28;20048;-46
2024/01/31 11:19:47;;;;;;;51.40;40.25;;;17.70;69.70;;;;;;5055562;28;20045;-49
2024/01/31 11:22:13;;;;;;;42.60;32.55;;;17.30;70.20;;;;;;5031010;28;20048;-52
2024/01/31 11:24:46;;;;;;;44.42;35.17;;;18.00;71.20;;;;;;5031390;28;20045;-50
2024/01/31 11:27:16;;;;;;;47.92;37.85;;;18.60;70.90;;;;;;5028380;28;20077;-47
2024/01/31 11:29:45;;;;;;;45.05;38.10;;;18.80;70.60;;;;;;5031377;28;20041;-49
2024/01/31 11:32:12;;;;;;;71.50;51.30;;;19.40;70.20;;;;;;5031105;28;20056;-49
2024/01/31 11:34:39;;;;;;;49.70;42.33;;;19.30;70.10;;;;;;5034606;28;20136;-47
2024/01/31 11:37:05;;;;;;;48.78;39.65;;;18.30;70.10;;;;;;5042142;28;20365;-49
2024/01/31 11:39:31;;;;;;;51.67;45.40;;;18.60;70.70;;;;;;5043061;28;20033;-48
2024/01/31 11:41:57;;;;;;;68.18;53.30;;;18.30;71.10;;;;;;5035111;28;20045;-46
2024/01/31 11:44:23;;;;;;;57.50;44.83;;;18.50;71.30;;;;;;5015502;28;20057;-46
2024/01/31 11:46:50;;;;;;;59.78;46.25;;;18.50;71.00;;;;;;5032165;28;20436;-49
2024/01/31 11:49:16;;;;;;;57.53;46.85;;;18.80;70.00;;;;;;5032226;28;20037;-51
2024/01/31 11:51:42;;;;;;;60.38;48.10;;;19.20;70.20;;;;;;5032190;28;20209;-47
2024/01/31 11:54:09;;;;;;;53.17;44.65;;;19.10;70.50;;;;;;5034087;28;20049;-45
2024/01/31 11:56:35;;;;;;;57.65;46.92;;;19.30;70.20;;;;;;5032910;28;20034;-49
2024/01/31 11:59:01;;;;;;;61.05;45.25;;;19.20;70.00;;;;;;5034490;28;20034;-47
2024/01/31 12:01:27;;;;;;;80.43;50.90;;;19.40;69.80;;;;;;5034226;28;20033;-46
2024/01/31 12:03:53;;;;;;;66.18;50.88;;;19.40;70.70;;;;;;5034082;28;20032;-47
2024/01/31 12:06:19;;;;;;;57.55;44.33;;;18.70;70.50;;;;;;5035693;28;20038;-49
2024/01/31 12:08:49;;;;;;;52.25;43.83;;;17.80;70.50;;;;;;5053960;28;20171;-48
2024/01/31 12:11:15;;;;;;;53.95;43.08;;;;;;;;;;5053912;28;20029;-49
2024/01/31 12:13:41;;;;;;;54.88;43.78;;;18.40;70.70;;;;;;5051870;28;20053;-47
2024/01/31 12:16:11;;;;;;;71.50;48.67;;;18.50;72.00;;;;;;5035240;28;20047;-47
2024/01/31 12:18:37;;;;;;;72.13;46.83;;;18.60;72.00;;;;;;5033793;28;20061;-49
2024/01/31 12:21:03;;;;;;;56.20;46.63;;;18.40;71.90;;;;;;5032624;28;20037;-46
2024/01/31 12:23:30;;;;;;;57.47;45.33;;;18.30;71.50;;;;;;5037742;28;20449;-46
2024/01/31 12:25:57;;;;;;;60.17;42.88;;;17.90;71.30;;;;;;5041995;28;20040;-50
2024/01/31 12:28:23;;;;;;;55.53;44.47;;;17.40;73.10;;;;;;5043410;28;20033;-49
2024/01/31 12:30:49;;;;;;;50.30;38.25;;;17.70;74.70;;;;;;5048489;28;20029;-47
2024/01/31 12:33:14;;;;;;;42.90;35.33;;;18.20;74.60;;;;;;5038708;28;20044;-49
2024/01/31 12:35:40;;;;;;;46.55;37.65;;;;;;;;;;5022850;28;20047;-47
2024/01/31 12:38:07;;;;;;;50.08;38.22;;;;;;;;;;5044008;28;20025;-51
2024/01/31 12:40:34;;;;;;;42.83;37.03;;;;;;;;;;5042022;28;20128;-49
2024/01/31 12:42:59;;;;;;;46.08;36.63;;;16.30;97.30;;;;;;5061327;28;20045;-45
2024/01/31 12:45:25;;;;;;;43.42;35.95;;;;;;;;;;5042913;28;20041;-45
2024/01/31 12:47:52;;;;;;;48.92;36.55;;;;;;;;;;5042211;28;20112;-49
2024/01/31 12:50:18;;;;;;;41.38;34.85;;;;;;;;;;5050252;28;20081;-51
2024/01/31 12:52:44;;;;;;;43.55;34.83;;;;;;;;;;5043323;28;20044;-47
2024/01/31 12:55:11;;;;;;;44.70;35.65;;;15.30;97.90;;;;;;5023368;28;20057;-46
2024/01/31 12:57:37;;;;;;;43.22;34.67;;;15.50;74.30;;;;;;5043257;28;20040;-47